sensor_id;sensor_type;location;lat;lon;timestamp;temperature;humidity
65876;HTU21D;52657;51.128;5.938;2023-11-21T00:00:50;11.08;74.57
65876;HTU21D;52657;51.128;5.938;2023-11-21T00:03:16;11.07;74.64
65876;HTU21D;52657;51.128;5.938;2023-11-21T00:05:41;11.08;74.60
65876;HTU21D;52657;51.128;5.938;2023-11-21T00:08:08;11.08;74.63
65876;HTU21D;52657;51.128;5.938;2023-11-21T00:10:34;11.10;74.69
65876;HTU21D;52657;51.128;5.938;2023-11-21T00:13:00;11.10;74.72
65876;HTU21D;52657;51.128;5.938;2023-11-21T00:15:27;11.10;74.77
65876;HTU21D;52657;51.128;5.938;2023-11-21T00:17:53;11.15;74.73
65876;HTU21D;52657;51.128;5.938;2023-11-21T00:20:18;11.18;74.59
65876;HTU21D;52657;51.128;5.938;2023-11-21T00:22:53;11.18;74.53
65876;HTU21D;52657;51.128;5.938;2023-11-21T00:25:19;11.19;74.50
65876;HTU21D;52657;51.128;5.938;2023-11-21T00:27:45;11.20;74.50
65876;HTU21D;52657;51.128;5.938;2023-11-21T00:30:11;11.24;74.41
65876;HTU21D;52657;51.128;5.938;2023-11-21T00:32:37;11.26;74.36
65876;HTU21D;52657;51.128;5.938;2023-11-21T00:35:03;11.30;74.29
65876;HTU21D;52657;51.128;5.938;2023-11-21T00:37:29;11.29;74.24
65876;HTU21D;52657;51.128;5.938;2023-11-21T00:39:57;11.29;74.27
65876;HTU21D;52657;51.128;5.938;2023-11-21T00:42:23;11.28;74.34
65876;HTU21D;52657;51.128;5.938;2023-11-21T00:44:50;11.31;74.32
65876;HTU21D;52657;51.128;5.938;2023-11-21T00:47:15;11.32;74.34
65876;HTU21D;52657;51.128;5.938;2023-11-21T00:49:42;11.31;74.35
65876;HTU21D;52657;51.128;5.938;2023-11-21T00:52:08;11.31;74.38
65876;HTU21D;52657;51.128;5.938;2023-11-21T00:54:34;11.34;74.41
65876;HTU21D;52657;51.128;5.938;2023-11-21T00:56:59;11.36;74.43
65876;HTU21D;52657;51.128;5.938;2023-11-21T00:59:25;11.38;74.38
65876;HTU21D;52657;51.128;5.938;2023-11-21T01:01:51;11.39;74.31
65876;HTU21D;52657;51.128;5.938;2023-11-21T01:04:17;11.32;74.38
65876;HTU21D;52657;51.128;5.938;2023-11-21T01:06:42;11.29;74.57
65876;HTU21D;52657;51.128;5.938;2023-11-21T01:09:08;11.28;74.67
65876;HTU21D;52657;51.128;5.938;2023-11-21T01:11:36;11.26;74.82
65876;HTU21D;52657;51.128;5.938;2023-11-21T01:14:03;11.25;74.99
65876;HTU21D;52657;51.128;5.938;2023-11-21T01:16:31;11.18;75.18
65876;HTU21D;52657;51.128;5.938;2023-11-21T01:18:59;11.17;75.44
65876;HTU21D;52657;51.128;5.938;2023-11-21T01:21:25;11.17;75.65
65876;HTU21D;52657;51.128;5.938;2023-11-21T01:23:51;11.19;75.75
65876;HTU21D;52657;51.128;5.938;2023-11-21T01:26:17;11.26;75.66
65876;HTU21D;52657;51.128;5.938;2023-11-21T01:28:42;11.29;75.60
65876;HTU21D;52657;51.128;5.938;2023-11-21T01:31:08;11.28;75.43
65876;HTU21D;52657;51.128;5.938;2023-11-21T01:33:34;11.30;75.45
65876;HTU21D;52657;51.128;5.938;2023-11-21T01:35:59;11.34;75.42
65876;HTU21D;52657;51.128;5.938;2023-11-21T01:38:25;11.36;75.36
65876;HTU21D;52657;51.128;5.938;2023-11-21T01:40:51;11.39;75.31
65876;HTU21D;52657;51.128;5.938;2023-11-21T01:43:17;11.37;75.42
65876;HTU21D;52657;51.128;5.938;2023-11-21T01:45:44;11.39;75.47
65876;HTU21D;52657;51.128;5.938;2023-11-21T01:48:14;11.37;75.39
65876;HTU21D;52657;51.128;5.938;2023-11-21T01:50:42;11.33;75.47
65876;HTU21D;52657;51.128;5.938;2023-11-21T01:53:10;11.32;75.59
65876;HTU21D;52657;51.128;5.938;2023-11-21T01:55:36;11.36;75.63
65876;HTU21D;52657;51.128;5.938;2023-11-21T01:58:02;11.36;75.62
65876;HTU21D;52657;51.128;5.938;2023-11-21T02:00:28;11.39;75.58
65876;HTU21D;52657;51.128;5.938;2023-11-21T02:02:55;11.38;75.54
65876;HTU21D;52657;51.128;5.938;2023-11-21T02:05:22;11.40;75.47
65876;HTU21D;52657;51.128;5.938;2023-11-21T02:07:48;11.43;75.45
65876;HTU21D;52657;51.128;5.938;2023-11-21T02:10:15;11.45;75.44
65876;HTU21D;52657;51.128;5.938;2023-11-21T02:12:42;11.46;75.38
65876;HTU21D;52657;51.128;5.938;2023-11-21T02:15:10;11.46;75.30
65876;HTU21D;52657;51.128;5.938;2023-11-21T02:17:43;11.43;75.41
65876;HTU21D;52657;51.128;5.938;2023-11-21T02:20:11;11.43;75.48
65876;HTU21D;52657;51.128;5.938;2023-11-21T02:22:42;11.44;75.41
65876;HTU21D;52657;51.128;5.938;2023-11-21T02:25:08;11.47;75.31
65876;HTU21D;52657;51.128;5.938;2023-11-21T02:27:35;11.45;75.40
65876;HTU21D;52657;51.128;5.938;2023-11-21T02:30:02;11.44;75.44
65876;HTU21D;52657;51.128;5.938;2023-11-21T02:32:29;11.41;75.36
65876;HTU21D;52657;51.128;5.938;2023-11-21T02:34:58;11.43;75.40
65876;HTU21D;52657;51.128;5.938;2023-11-21T02:37:26;11.39;75.56
65876;HTU21D;52657;51.128;5.938;2023-11-21T02:39:52;11.42;75.60
65876;HTU21D;52657;51.128;5.938;2023-11-21T02:42:18;11.44;75.50
65876;HTU21D;52657;51.128;5.938;2023-11-21T02:44:44;11.45;75.46
65876;HTU21D;52657;51.128;5.938;2023-11-21T02:47:10;11.47;75.44
65876;HTU21D;52657;51.128;5.938;2023-11-21T02:49:35;11.48;75.41
65876;HTU21D;52657;51.128;5.938;2023-11-21T02:52:01;11.48;75.35
65876;HTU21D;52657;51.128;5.938;2023-11-21T02:54:27;11.51;75.25
65876;HTU21D;52657;51.128;5.938;2023-11-21T02:56:53;11.51;75.25
65876;HTU21D;52657;51.128;5.938;2023-11-21T02:59:18;11.53;75.21
65876;HTU21D;52657;51.128;5.938;2023-11-21T03:01:45;11.54;75.09
65876;HTU21D;52657;51.128;5.938;2023-11-21T03:04:11;11.53;75.07
65876;HTU21D;52657;51.128;5.938;2023-11-21T03:06:43;11.52;75.11
65876;HTU21D;52657;51.128;5.938;2023-11-21T03:09:10;11.49;75.12
65876;HTU21D;52657;51.128;5.938;2023-11-21T03:11:38;11.47;75.13
65876;HTU21D;52657;51.128;5.938;2023-11-21T03:14:03;11.47;75.17
65876;HTU21D;52657;51.128;5.938;2023-11-21T03:16:29;11.45;75.13
65876;HTU21D;52657;51.128;5.938;2023-11-21T03:18:54;11.47;75.12
65876;HTU21D;52657;51.128;5.938;2023-11-21T03:21:20;11.47;74.98
65876;HTU21D;52657;51.128;5.938;2023-11-21T03:23:46;11.45;74.96
65876;HTU21D;52657;51.128;5.938;2023-11-21T03:26:12;11.45;75.06
65876;HTU21D;52657;51.128;5.938;2023-11-21T03:28:38;11.44;74.96
65876;HTU21D;52657;51.128;5.938;2023-11-21T03:31:04;11.43;75.06
65876;HTU21D;52657;51.128;5.938;2023-11-21T03:33:29;11.44;75.13
65876;HTU21D;52657;51.128;5.938;2023-11-21T03:35:56;11.43;75.25
65876;HTU21D;52657;51.128;5.938;2023-11-21T03:38:23;11.46;75.30
65876;HTU21D;52657;51.128;5.938;2023-11-21T03:40:49;11.46;75.26
65876;HTU21D;52657;51.128;5.938;2023-11-21T03:43:16;11.46;75.24
65876;HTU21D;52657;51.128;5.938;2023-11-21T03:45:41;11.44;75.30
65876;HTU21D;52657;51.128;5.938;2023-11-21T03:48:07;11.44;75.33
65876;HTU21D;52657;51.128;5.938;2023-11-21T03:50:36;11.43;75.44
65876;HTU21D;52657;51.128;5.938;2023-11-21T03:53:02;11.47;75.47
65876;HTU21D;52657;51.128;5.938;2023-11-21T03:55:29;11.46;75.66
65876;HTU21D;52657;51.128;5.938;2023-11-21T03:57:57;11.47;75.67
65876;HTU21D;52657;51.128;5.938;2023-11-21T04:00:23;11.48;75.73
65876;HTU21D;52657;51.128;5.938;2023-11-21T04:02:49;11.49;75.78
65876;HTU21D;52657;51.128;5.938;2023-11-21T04:05:17;11.52;75.75
65876;HTU21D;52657;51.128;5.938;2023-11-21T04:07:42;11.54;75.76
65876;HTU21D;52657;51.128;5.938;2023-11-21T04:10:09;11.56;75.63
65876;HTU21D;52657;51.128;5.938;2023-11-21T04:12:35;11.56;75.63
65876;HTU21D;52657;51.128;5.938;2023-11-21T04:15:03;11.56;75.76
65876;HTU21D;52657;51.128;5.938;2023-11-21T04:17:28;11.55;75.87
65876;HTU21D;52657;51.128;5.938;2023-11-21T04:19:54;11.54;75.86
65876;HTU21D;52657;51.128;5.938;2023-11-21T04:22:20;11.54;75.85
65876;HTU21D;52657;51.128;5.938;2023-11-21T04:24:45;11.52;75.88
65876;HTU21D;52657;51.128;5.938;2023-11-21T04:27:11;11.51;75.93
65876;HTU21D;52657;51.128;5.938;2023-11-21T04:29:36;11.52;75.89
65876;HTU21D;52657;51.128;5.938;2023-11-21T04:32:02;11.53;75.93
65876;HTU21D;52657;51.128;5.938;2023-11-21T04:34:28;11.54;75.91
65876;HTU21D;52657;51.128;5.938;2023-11-21T04:36:57;11.57;75.89
65876;HTU21D;52657;51.128;5.938;2023-11-21T04:39:22;11.55;75.88
65876;HTU21D;52657;51.128;5.938;2023-11-21T04:41:50;11.56;75.89
65876;HTU21D;52657;51.128;5.938;2023-11-21T04:44:15;11.58;75.84
65876;HTU21D;52657;51.128;5.938;2023-11-21T04:46:42;11.60;75.83
65876;HTU21D;52657;51.128;5.938;2023-11-21T04:49:08;11.61;75.77
65876;HTU21D;52657;51.128;5.938;2023-11-21T04:51:34;11.64;75.76
65876;HTU21D;52657;51.128;5.938;2023-11-21T04:53:59;11.64;75.78
65876;HTU21D;52657;51.128;5.938;2023-11-21T04:56:25;11.66;75.78
65876;HTU21D;52657;51.128;5.938;2023-11-21T04:58:50;11.67;75.76
65876;HTU21D;52657;51.128;5.938;2023-11-21T05:01:16;11.66;75.79
65876;HTU21D;52657;51.128;5.938;2023-11-21T05:03:42;11.70;75.78
65876;HTU21D;52657;51.128;5.938;2023-11-21T05:06:10;11.71;75.78
65876;HTU21D;52657;51.128;5.938;2023-11-21T05:08:36;11.73;75.76
65876;HTU21D;52657;51.128;5.938;2023-11-21T05:11:03;11.71;75.87
65876;HTU21D;52657;51.128;5.938;2023-11-21T05:13:29;11.71;75.91
65876;HTU21D;52657;51.128;5.938;2023-11-21T05:15:55;11.69;76.02
65876;HTU21D;52657;51.128;5.938;2023-11-21T05:18:24;11.71;76.13
65876;HTU21D;52657;51.128;5.938;2023-11-21T05:20:52;11.72;76.19
65876;HTU21D;52657;51.128;5.938;2023-11-21T05:23:19;11.74;76.18
65876;HTU21D;52657;51.128;5.938;2023-11-21T05:25:45;11.76;76.15
65876;HTU21D;52657;51.128;5.938;2023-11-21T05:28:12;11.75;76.14
65876;HTU21D;52657;51.128;5.938;2023-11-21T05:30:38;11.77;76.14
65876;HTU21D;52657;51.128;5.938;2023-11-21T05:33:06;11.77;76.16
65876;HTU21D;52657;51.128;5.938;2023-11-21T05:35:32;11.74;76.24
65876;HTU21D;52657;51.128;5.938;2023-11-21T05:37:58;11.71;76.37
65876;HTU21D;52657;51.128;5.938;2023-11-21T05:40:23;11.70;76.48
65876;HTU21D;52657;51.128;5.938;2023-11-21T05:42:51;11.67;76.66
65876;HTU21D;52657;51.128;5.938;2023-11-21T05:45:17;11.64;76.81
65876;HTU21D;52657;51.128;5.938;2023-11-21T05:47:47;11.64;76.90
65876;HTU21D;52657;51.128;5.938;2023-11-21T05:50:15;11.67;76.89
65876;HTU21D;52657;51.128;5.938;2023-11-21T05:52:42;11.69;76.86
65876;HTU21D;52657;51.128;5.938;2023-11-21T05:55:09;11.71;76.82
65876;HTU21D;52657;51.128;5.938;2023-11-21T05:57:36;11.72;76.88
65876;HTU21D;52657;51.128;5.938;2023-11-21T06:00:09;11.74;76.89
65876;HTU21D;52657;51.128;5.938;2023-11-21T06:02:46;11.76;76.87
65876;HTU21D;52657;51.128;5.938;2023-11-21T06:05:12;11.79;76.79
65876;HTU21D;52657;51.128;5.938;2023-11-21T06:07:38;11.79;76.74
65876;HTU21D;52657;51.128;5.938;2023-11-21T06:10:08;11.78;76.79
65876;HTU21D;52657;51.128;5.938;2023-11-21T06:12:37;11.81;76.83
65876;HTU21D;52657;51.128;5.938;2023-11-21T06:15:03;11.79;76.76
65876;HTU21D;52657;51.128;5.938;2023-11-21T06:17:34;11.78;76.85
65876;HTU21D;52657;51.128;5.938;2023-11-21T06:20:02;11.78;76.84
65876;HTU21D;52657;51.128;5.938;2023-11-21T06:22:38;11.79;76.76
65876;HTU21D;52657;51.128;5.938;2023-11-21T06:25:05;11.74;76.89
65876;HTU21D;52657;51.128;5.938;2023-11-21T06:27:38;11.74;77.00
65876;HTU21D;52657;51.128;5.938;2023-11-21T06:30:04;11.74;77.15
65876;HTU21D;52657;51.128;5.938;2023-11-21T06:32:32;11.78;77.13
65876;HTU21D;52657;51.128;5.938;2023-11-21T06:34:58;11.79;77.02
65876;HTU21D;52657;51.128;5.938;2023-11-21T06:37:28;11.82;76.96
65876;HTU21D;52657;51.128;5.938;2023-11-21T06:39:54;11.83;76.92
65876;HTU21D;52657;51.128;5.938;2023-11-21T06:42:22;11.85;76.87
65876;HTU21D;52657;51.128;5.938;2023-11-21T06:44:50;11.85;76.89
65876;HTU21D;52657;51.128;5.938;2023-11-21T06:47:20;11.87;76.88
65876;HTU21D;52657;51.128;5.938;2023-11-21T06:49:51;11.89;76.87
65876;HTU21D;52657;51.128;5.938;2023-11-21T06:52:18;11.92;76.80
65876;HTU21D;52657;51.128;5.938;2023-11-21T06:54:44;11.91;76.70
65876;HTU21D;52657;51.128;5.938;2023-11-21T06:57:11;11.90;76.72
65876;HTU21D;52657;51.128;5.938;2023-11-21T06:59:37;11.89;76.69
65876;HTU21D;52657;51.128;5.938;2023-11-21T07:02:02;11.90;76.78
65876;HTU21D;52657;51.128;5.938;2023-11-21T07:04:28;11.89;76.86
65876;HTU21D;52657;51.128;5.938;2023-11-21T07:06:54;11.87;76.87
65876;HTU21D;52657;51.128;5.938;2023-11-21T07:09:20;11.89;77.00
65876;HTU21D;52657;51.128;5.938;2023-11-21T07:11:55;11.92;76.92
65876;HTU21D;52657;51.128;5.938;2023-11-21T07:14:21;11.92;76.86
65876;HTU21D;52657;51.128;5.938;2023-11-21T07:16:46;11.94;76.82
65876;HTU21D;52657;51.128;5.938;2023-11-21T07:19:13;11.96;76.71
65876;HTU21D;52657;51.128;5.938;2023-11-21T07:21:39;11.98;76.73
65876;HTU21D;52657;51.128;5.938;2023-11-21T07:24:06;11.98;76.75
65876;HTU21D;52657;51.128;5.938;2023-11-21T07:26:33;12.00;76.85
65876;HTU21D;52657;51.128;5.938;2023-11-21T07:29:00;12.02;76.79
65876;HTU21D;52657;51.128;5.938;2023-11-21T07:31:26;12.05;76.79
65876;HTU21D;52657;51.128;5.938;2023-11-21T07:33:52;12.05;76.73
65876;HTU21D;52657;51.128;5.938;2023-11-21T07:36:19;12.06;76.66
65876;HTU21D;52657;51.128;5.938;2023-11-21T07:38:48;12.12;76.50
65876;HTU21D;52657;51.128;5.938;2023-11-21T07:41:13;12.07;76.58
65876;HTU21D;52657;51.128;5.938;2023-11-21T07:43:44;12.07;76.72
65876;HTU21D;52657;51.128;5.938;2023-11-21T07:46:11;12.10;76.62
65876;HTU21D;52657;51.128;5.938;2023-11-21T07:48:39;12.06;76.68
65876;HTU21D;52657;51.128;5.938;2023-11-21T07:51:05;12.06;76.84
65876;HTU21D;52657;51.128;5.938;2023-11-21T07:53:32;12.07;76.86
65876;HTU21D;52657;51.128;5.938;2023-11-21T07:56:05;12.12;76.87
65876;HTU21D;52657;51.128;5.938;2023-11-21T07:58:31;12.14;76.76
65876;HTU21D;52657;51.128;5.938;2023-11-21T08:00:59;12.16;76.76
65876;HTU21D;52657;51.128;5.938;2023-11-21T08:03:25;12.20;76.73
65876;HTU21D;52657;51.128;5.938;2023-11-21T08:05:52;12.23;76.62
65876;HTU21D;52657;51.128;5.938;2023-11-21T08:08:18;12.26;76.54
65876;HTU21D;52657;51.128;5.938;2023-11-21T08:10:44;12.30;76.50
65876;HTU21D;52657;51.128;5.938;2023-11-21T08:13:26;12.31;76.45
65876;HTU21D;52657;51.128;5.938;2023-11-21T08:15:56;12.34;76.34
65876;HTU21D;52657;51.128;5.938;2023-11-21T08:18:22;12.32;76.34
65876;HTU21D;52657;51.128;5.938;2023-11-21T08:20:48;12.34;76.38
65876;HTU21D;52657;51.128;5.938;2023-11-21T08:23:17;12.36;76.34
65876;HTU21D;52657;51.128;5.938;2023-11-21T08:25:46;12.38;76.20
65876;HTU21D;52657;51.128;5.938;2023-11-21T08:28:12;12.37;76.20
65876;HTU21D;52657;51.128;5.938;2023-11-21T08:30:40;12.36;76.28
65876;HTU21D;52657;51.128;5.938;2023-11-21T08:33:07;12.37;76.37
65876;HTU21D;52657;51.128;5.938;2023-11-21T08:35:34;12.40;76.39
65876;HTU21D;52657;51.128;5.938;2023-11-21T08:38:00;12.44;76.42
65876;HTU21D;52657;51.128;5.938;2023-11-21T08:40:25;12.47;76.45
65876;HTU21D;52657;51.128;5.938;2023-11-21T08:42:51;12.52;76.35
65876;HTU21D;52657;51.128;5.938;2023-11-21T08:45:18;12.53;76.28
65876;HTU21D;52657;51.128;5.938;2023-11-21T08:47:48;12.53;76.24
65876;HTU21D;52657;51.128;5.938;2023-11-21T08:50:13;12.55;76.29
65876;HTU21D;52657;51.128;5.938;2023-11-21T08:52:41;12.55;76.34
65876;HTU21D;52657;51.128;5.938;2023-11-21T08:55:08;12.56;76.37
65876;HTU21D;52657;51.128;5.938;2023-11-21T08:57:37;12.57;76.42
65876;HTU21D;52657;51.128;5.938;2023-11-21T09:00:05;12.60;76.43
65876;HTU21D;52657;51.128;5.938;2023-11-21T09:02:37;12.61;76.35
65876;HTU21D;52657;51.128;5.938;2023-11-21T09:05:04;12.63;76.37
65876;HTU21D;52657;51.128;5.938;2023-11-21T09:07:33;12.65;76.32
65876;HTU21D;52657;51.128;5.938;2023-11-21T09:09:59;12.64;76.27
65876;HTU21D;52657;51.128;5.938;2023-11-21T09:12:24;12.64;76.34
65876;HTU21D;52657;51.128;5.938;2023-11-21T09:14:50;12.66;76.29
65876;HTU21D;52657;51.128;5.938;2023-11-21T09:17:16;12.72;76.27
65876;HTU21D;52657;51.128;5.938;2023-11-21T09:19:43;12.74;76.20
65876;HTU21D;52657;51.128;5.938;2023-11-21T09:22:18;12.74;76.00
65876;HTU21D;52657;51.128;5.938;2023-11-21T09:24:44;12.71;76.16
65876;HTU21D;52657;51.128;5.938;2023-11-21T09:27:10;12.73;76.31
65876;HTU21D;52657;51.128;5.938;2023-11-21T09:29:36;12.77;76.41
65876;HTU21D;52657;51.128;5.938;2023-11-21T09:32:05;12.80;76.36
65876;HTU21D;52657;51.128;5.938;2023-11-21T09:34:37;12.82;76.29
65876;HTU21D;52657;51.128;5.938;2023-11-21T09:37:06;12.85;76.38
65876;HTU21D;52657;51.128;5.938;2023-11-21T09:39:32;12.91;76.22
65876;HTU21D;52657;51.128;5.938;2023-11-21T09:42:20;12.91;76.18
65876;HTU21D;52657;51.128;5.938;2023-11-21T09:44:56;12.93;76.07
65876;HTU21D;52657;51.128;5.938;2023-11-21T09:47:24;12.93;76.04
65876;HTU21D;52657;51.128;5.938;2023-11-21T09:49:54;12.91;76.15
65876;HTU21D;52657;51.128;5.938;2023-11-21T09:52:26;12.93;76.34
65876;HTU21D;52657;51.128;5.938;2023-11-21T09:54:53;12.93;76.47
65876;HTU21D;52657;51.128;5.938;2023-11-21T09:57:20;12.97;76.50
65876;HTU21D;52657;51.128;5.938;2023-11-21T09:59:53;13.01;76.44
65876;HTU21D;52657;51.128;5.938;2023-11-21T10:02:27;13.06;76.29
65876;HTU21D;52657;51.128;5.938;2023-11-21T10:04:59;13.07;76.28
65876;HTU21D;52657;51.128;5.938;2023-11-21T10:07:26;13.11;76.21
65876;HTU21D;52657;51.128;5.938;2023-11-21T10:09:54;13.12;76.08
65876;HTU21D;52657;51.128;5.938;2023-11-21T10:12:23;13.15;76.03
65876;HTU21D;52657;51.128;5.938;2023-11-21T10:14:50;13.16;75.80
65876;HTU21D;52657;51.128;5.938;2023-11-21T10:17:18;13.11;75.69
65876;HTU21D;52657;51.128;5.938;2023-11-21T10:19:47;13.07;75.70
65876;HTU21D;52657;51.128;5.938;2023-11-21T10:22:15;13.04;75.84
65876;HTU21D;52657;51.128;5.938;2023-11-21T10:24:42;13.03;75.96
65876;HTU21D;52657;51.128;5.938;2023-11-21T10:27:09;13.01;76.01
65876;HTU21D;52657;51.128;5.938;2023-11-21T10:29:35;12.99;76.08
65876;HTU21D;52657;51.128;5.938;2023-11-21T10:32:04;12.99;76.31
65876;HTU21D;52657;51.128;5.938;2023-11-21T10:34:31;13.03;76.41
65876;HTU21D;52657;51.128;5.938;2023-11-21T10:36:58;13.05;76.31
65876;HTU21D;52657;51.128;5.938;2023-11-21T10:39:24;13.07;76.45
65876;HTU21D;52657;51.128;5.938;2023-11-21T10:41:56;13.10;76.41
65876;HTU21D;52657;51.128;5.938;2023-11-21T10:44:22;13.17;76.53
65876;HTU21D;52657;51.128;5.938;2023-11-21T10:46:53;13.20;76.40
65876;HTU21D;52657;51.128;5.938;2023-11-21T10:49:25;13.21;76.51
65876;HTU21D;52657;51.128;5.938;2023-11-21T10:51:53;13.21;76.36
65876;HTU21D;52657;51.128;5.938;2023-11-21T10:54:20;13.22;76.56
65876;HTU21D;52657;51.128;5.938;2023-11-21T10:56:49;13.26;76.50
65876;HTU21D;52657;51.128;5.938;2023-11-21T10:59:17;13.31;76.38
65876;HTU21D;52657;51.128;5.938;2023-11-21T11:01:47;13.35;76.19
65876;HTU21D;52657;51.128;5.938;2023-11-21T11:04:18;13.36;76.24
65876;HTU21D;52657;51.128;5.938;2023-11-21T11:06:49;13.36;76.29
65876;HTU21D;52657;51.128;5.938;2023-11-21T11:09:17;13.41;76.41
65876;HTU21D;52657;51.128;5.938;2023-11-21T11:11:43;13.47;76.37
65876;HTU21D;52657;51.128;5.938;2023-11-21T11:14:13;13.48;76.38
65876;HTU21D;52657;51.128;5.938;2023-11-21T11:16:41;13.52;76.46
65876;HTU21D;52657;51.128;5.938;2023-11-21T11:19:10;13.56;76.34
65876;HTU21D;52657;51.128;5.938;2023-11-21T11:22:08;13.63;76.28
65876;HTU21D;52657;51.128;5.938;2023-11-21T11:30:11;13.66;75.80
65876;HTU21D;52657;51.128;5.938;2023-11-21T11:33:30;13.65;75.65
65876;HTU21D;52657;51.128;5.938;2023-11-21T11:36:36;13.66;75.79
65876;HTU21D;52657;51.128;5.938;2023-11-21T11:39:03;13.70;75.55
65876;HTU21D;52657;51.128;5.938;2023-11-21T11:41:50;13.73;75.60
65876;HTU21D;52657;51.128;5.938;2023-11-21T11:47:22;13.76;75.34
65876;HTU21D;52657;51.128;5.938;2023-11-21T11:52:42;13.75;75.47
65876;HTU21D;52657;51.128;5.938;2023-11-21T11:55:13;13.78;75.57
65876;HTU21D;52657;51.128;5.938;2023-11-21T11:57:40;13.79;75.46
65876;HTU21D;52657;51.128;5.938;2023-11-21T12:00:11;13.80;75.47
65876;HTU21D;52657;51.128;5.938;2023-11-21T12:02:44;13.82;75.47
65876;HTU21D;52657;51.128;5.938;2023-11-21T12:05:12;13.83;75.41
65876;HTU21D;52657;51.128;5.938;2023-11-21T12:10:16;13.84;75.65
65876;HTU21D;52657;51.128;5.938;2023-11-21T12:12:47;13.88;75.63
65876;HTU21D;52657;51.128;5.938;2023-11-21T12:15:14;13.89;75.61
65876;HTU21D;52657;51.128;5.938;2023-11-21T12:17:43;13.88;75.60
65876;HTU21D;52657;51.128;5.938;2023-11-21T12:20:15;13.88;75.65
65876;HTU21D;52657;51.128;5.938;2023-11-21T12:22:47;13.89;75.73
65876;HTU21D;52657;51.128;5.938;2023-11-21T12:25:27;13.91;75.76
65876;HTU21D;52657;51.128;5.938;2023-11-21T12:27:55;13.92;75.83
65876;HTU21D;52657;51.128;5.938;2023-11-21T12:30:23;13.94;75.90
65876;HTU21D;52657;51.128;5.938;2023-11-21T12:32:51;13.94;75.87
65876;HTU21D;52657;51.128;5.938;2023-11-21T12:35:27;13.88;75.80
65876;HTU21D;52657;51.128;5.938;2023-11-21T12:37:55;13.86;76.02
65876;HTU21D;52657;51.128;5.938;2023-11-21T12:40:22;13.92;76.07
65876;HTU21D;52657;51.128;5.938;2023-11-21T12:42:51;13.94;75.78
65876;HTU21D;52657;51.128;5.938;2023-11-21T12:45:23;13.91;75.71
65876;HTU21D;52657;51.128;5.938;2023-11-21T12:47:55;13.86;75.82
65876;HTU21D;52657;51.128;5.938;2023-11-21T12:50:23;13.85;76.02
65876;HTU21D;52657;51.128;5.938;2023-11-21T12:52:52;13.88;75.89
65876;HTU21D;52657;51.128;5.938;2023-11-21T12:55:22;13.83;75.95
65876;HTU21D;52657;51.128;5.938;2023-11-21T12:57:55;13.85;75.94
65876;HTU21D;52657;51.128;5.938;2023-11-21T13:00:48;13.80;76.10
65876;HTU21D;52657;51.128;5.938;2023-11-21T13:03:16;13.78;76.02
65876;HTU21D;52657;51.128;5.938;2023-11-21T13:05:48;13.74;76.20
65876;HTU21D;52657;51.128;5.938;2023-11-21T13:08:21;13.76;76.17
65876;HTU21D;52657;51.128;5.938;2023-11-21T13:10:55;13.70;76.23
65876;HTU21D;52657;51.128;5.938;2023-11-21T13:13:23;13.70;76.18
65876;HTU21D;52657;51.128;5.938;2023-11-21T13:15:55;13.71;76.37
65876;HTU21D;52657;51.128;5.938;2023-11-21T13:18:27;13.75;76.15
65876;HTU21D;52657;51.128;5.938;2023-11-21T13:20:58;13.71;76.06
65876;HTU21D;52657;51.128;5.938;2023-11-21T13:23:25;13.66;76.21
65876;HTU21D;52657;51.128;5.938;2023-11-21T13:25:51;13.59;76.35
65876;HTU21D;52657;51.128;5.938;2023-11-21T13:28:17;13.53;76.58
65876;HTU21D;52657;51.128;5.938;2023-11-21T13:30:47;13.53;76.95
65876;HTU21D;52657;51.128;5.938;2023-11-21T13:33:14;13.50;76.83
65876;HTU21D;52657;51.128;5.938;2023-11-21T13:35:44;13.48;77.02
65876;HTU21D;52657;51.128;5.938;2023-11-21T13:38:18;13.51;77.03
65876;HTU21D;52657;51.128;5.938;2023-11-21T13:40:52;13.46;76.94
65876;HTU21D;52657;51.128;5.938;2023-11-21T13:43:21;13.48;76.74
65876;HTU21D;52657;51.128;5.938;2023-11-21T13:45:49;13.47;76.84
65876;HTU21D;52657;51.128;5.938;2023-11-21T13:48:26;13.48;76.89
65876;HTU21D;52657;51.128;5.938;2023-11-21T13:50:58;13.50;76.68
65876;HTU21D;52657;51.128;5.938;2023-11-21T13:53:26;13.46;76.72
65876;HTU21D;52657;51.128;5.938;2023-11-21T13:55:54;13.47;76.66
65876;HTU21D;52657;51.128;5.938;2023-11-21T13:58:20;13.50;76.52
65876;HTU21D;52657;51.128;5.938;2023-11-21T14:01:05;13.43;76.76
65876;HTU21D;52657;51.128;5.938;2023-11-21T14:03:34;13.43;76.58
65876;HTU21D;52657;51.128;5.938;2023-11-21T14:06:10;13.39;76.95
65876;HTU21D;52657;51.128;5.938;2023-11-21T14:08:45;13.44;76.80
65876;HTU21D;52657;51.128;5.938;2023-11-21T14:11:12;13.51;76.74
65876;HTU21D;52657;51.128;5.938;2023-11-21T14:13:43;13.55;76.39
65876;HTU21D;52657;51.128;5.938;2023-11-21T14:16:13;13.49;76.45
65876;HTU21D;52657;51.128;5.938;2023-11-21T14:18:39;13.46;76.47
65876;HTU21D;52657;51.128;5.938;2023-11-21T14:21:18;13.46;76.42
65876;HTU21D;52657;51.128;5.938;2023-11-21T14:23:45;13.45;76.37
65876;HTU21D;52657;51.128;5.938;2023-11-21T14:26:11;13.44;76.53
65876;HTU21D;52657;51.128;5.938;2023-11-21T14:28:42;13.46;76.69
65876;HTU21D;52657;51.128;5.938;2023-11-21T14:31:08;13.49;76.44
65876;HTU21D;52657;51.128;5.938;2023-11-21T14:33:39;13.52;76.53
65876;HTU21D;52657;51.128;5.938;2023-11-21T14:36:06;13.53;76.44
65876;HTU21D;52657;51.128;5.938;2023-11-21T14:38:34;13.50;76.55
65876;HTU21D;52657;51.128;5.938;2023-11-21T14:40:59;13.51;76.73
65876;HTU21D;52657;51.128;5.938;2023-11-21T14:43:25;13.49;76.73
65876;HTU21D;52657;51.128;5.938;2023-11-21T14:45:55;13.51;76.73
65876;HTU21D;52657;51.128;5.938;2023-11-21T14:48:21;13.45;76.95
65876;HTU21D;52657;51.128;5.938;2023-11-21T14:51:06;13.40;76.84
65876;HTU21D;52657;51.128;5.938;2023-11-21T14:53:51;13.34;76.99
65876;HTU21D;52657;51.128;5.938;2023-11-21T14:56:23;13.35;77.12
65876;HTU21D;52657;51.128;5.938;2023-11-21T14:58:54;13.31;77.40
65876;HTU21D;52657;51.128;5.938;2023-11-21T15:01:23;13.31;77.20
65876;HTU21D;52657;51.128;5.938;2023-11-21T15:04:12;13.26;77.31
65876;HTU21D;52657;51.128;5.938;2023-11-21T15:06:47;13.18;77.28
65876;HTU21D;52657;51.128;5.938;2023-11-21T15:09:13;13.10;77.61
65876;HTU21D;52657;51.128;5.938;2023-11-21T15:11:39;13.04;77.77
65876;HTU21D;52657;51.128;5.938;2023-11-21T15:14:05;13.04;78.01
65876;HTU21D;52657;51.128;5.938;2023-11-21T15:16:34;13.05;77.91
65876;HTU21D;52657;51.128;5.938;2023-11-21T15:19:04;13.05;77.72
65876;HTU21D;52657;51.128;5.938;2023-11-21T15:21:31;13.06;77.37
65876;HTU21D;52657;51.128;5.938;2023-11-21T15:23:58;13.01;77.52
65876;HTU21D;52657;51.128;5.938;2023-11-21T15:26:23;13.01;77.69
65876;HTU21D;52657;51.128;5.938;2023-11-21T15:28:49;13.01;77.53
65876;HTU21D;52657;51.128;5.938;2023-11-21T15:31:14;12.94;77.76
65876;HTU21D;52657;51.128;5.938;2023-11-21T15:33:47;12.94;77.82
65876;HTU21D;52657;51.128;5.938;2023-11-21T15:36:13;12.95;77.77